Time;durP1;ratioP1;P1;durP2;ratioP2;P2;SDS_P1;SDS_P2;PMS_P1;PMS_P2;Temp;Humidity;BMP_temperature;BMP_pressure;BME280_temperature;BME280_humidity;BME280_pressure;Samples;Min_cycle;Max_cycle;Signal;HPM_P1;HPM_P2
2023/04/21 00:02:52;;;;;;;5.03;4.05;;;15.20;61.40;;;;;;10278883;28;20382;-55
2023/04/21 00:07:53;;;;;;;5.95;4.15;;;15.10;61.40;;;;;;10279443;28;20471;-55
2023/04/21 00:12:54;;;;;;;4.43;3.70;;;15.20;61.50;;;;;;10278586;28;20057;-56
2023/04/21 00:17:55;;;;;;;5.20;4.28;;;15.10;61.60;;;;;;10279345;28;20110;-55
2023/04/21 00:22:56;;;;;;;4.55;3.75;;;15.10;61.60;;;;;;10281037;28;20487;-55
2023/04/21 00:27:57;;;;;;;5.05;3.55;;;15.10;61.60;;;;;;10286117;28;20552;-54
2023/04/21 00:32:58;;;;;;;5.45;3.88;;;15.10;61.60;;;;;;10286433;28;20031;-55
2023/04/21 00:37:58;;;;;;;6.28;4.72;;;15.10;61.80;;;;;;10285661;28;20058;-56
2023/04/21 00:42:59;;;;;;;5.78;4.30;;;15.10;61.80;;;;;;10285952;28;20478;-55
2023/04/21 00:48:00;;;;;;;5.80;4.65;;;15.10;61.80;;;;;;10285573;28;20079;-55
2023/04/21 00:53:00;;;;;;;5.15;4.65;;;15.10;61.70;;;;;;10285000;28;20023;-55
2023/04/21 00:58:02;;;;;;;5.45;4.00;;;15.10;61.80;;;;;;10285125;28;20029;-55
2023/04/21 01:03:04;;;;;;;6.00;4.75;;;15.10;61.90;;;;;;10285432;28;20031;-55
2023/04/21 01:08:05;;;;;;;4.72;3.95;;;15.10;61.90;;;;;;10267373;28;20124;-54
2023/04/21 01:13:06;;;;;;;5.07;4.30;;;15.10;61.90;;;;;;10267401;28;20106;-55
2023/04/21 01:18:07;;;;;;;5.10;3.97;;;15.00;62.10;;;;;;10284648;28;20466;-55
2023/04/21 01:23:07;;;;;;;5.68;4.93;;;15.10;62.10;;;;;;10285238;28;20114;-53
2023/04/21 01:28:08;;;;;;;6.18;4.88;;;15.10;62.20;;;;;;10284379;28;20162;-55
2023/04/21 01:33:09;;;;;;;7.63;4.97;;;15.10;62.20;;;;;;10283413;28;20062;-52
2023/04/21 01:38:09;;;;;;;5.90;4.28;;;15.00;62.20;;;;;;10282999;28;20161;-52
2023/04/21 01:43:11;;;;;;;5.53;4.75;;;15.00;62.10;;;;;;10266603;28;20381;-55
2023/04/21 01:48:11;;;;;;;5.82;4.20;;;15.00;62.20;;;;;;10257941;28;20055;-55
2023/04/21 01:53:12;;;;;;;6.10;5.45;;;15.00;62.20;;;;;;10242706;29;20382;-56
2023/04/21 01:58:13;;;;;;;5.75;4.68;;;15.00;62.20;;;;;;10242731;28;20023;-54
2023/04/21 02:03:13;;;;;;;6.50;4.47;;;15.00;62.30;;;;;;10243264;29;20106;-54
2023/04/21 02:08:16;;;;;;;5.85;4.68;;;15.00;62.20;;;;;;10241209;29;20035;-52
2023/04/21 02:13:16;;;;;;;6.10;4.93;;;15.00;62.40;;;;;;10242536;29;20050;-56
2023/04/21 02:18:18;;;;;;;6.28;4.80;;;15.00;62.90;;;;;;10242276;29;20035;-56
2023/04/21 02:23:19;;;;;;;6.78;5.15;;;15.00;62.40;;;;;;10241700;29;20089;-56
2023/04/21 02:28:20;;;;;;;6.40;4.97;;;15.00;62.40;;;;;;10239980;29;20388;-55
2023/04/21 02:33:20;;;;;;;6.35;4.90;;;15.00;62.50;;;;;;10242104;29;20106;-54
2023/04/21 02:38:21;;;;;;;5.90;4.80;;;15.00;62.50;;;;;;10241568;29;20103;-56
2023/04/21 02:43:22;;;;;;;5.93;4.55;;;15.00;62.60;;;;;;10256279;28;20114;-55
2023/04/21 02:48:23;;;;;;;7.30;5.40;;;15.00;62.60;;;;;;10268617;28;20049;-57
2023/04/21 02:53:24;;;;;;;6.63;4.80;;;14.90;62.60;;;;;;10280597;28;20014;-56
2023/04/21 02:58:24;;;;;;;8.75;5.80;;;15.00;62.80;;;;;;10281291;28;20069;-55
2023/04/21 03:03:25;;;;;;;5.45;4.63;;;15.00;62.70;;;;;;10280726;28;20421;-56
2023/04/21 03:08:26;;;;;;;7.88;5.63;;;15.00;62.70;;;;;;10280192;28;20211;-54
2023/04/21 03:13:27;;;;;;;5.55;4.57;;;15.00;62.80;;;;;;10263260;28;20023;-55
2023/04/21 03:18:27;;;;;;;6.32;5.32;;;14.90;62.90;;;;;;10262572;28;20106;-56
2023/04/21 03:23:28;;;;;;;6.85;5.32;;;14.90;62.90;;;;;;10279920;28;20491;-56
2023/04/21 03:28:29;;;;;;;7.07;5.50;;;15.00;62.90;;;;;;10279720;28;20130;-51
2023/04/21 03:33:29;;;;;;;6.47;5.47;;;14.90;62.90;;;;;;10264635;28;20042;-56
2023/04/21 03:38:30;;;;;;;6.32;5.35;;;15.10;63.00;;;;;;10279972;28;20113;-56
2023/04/21 03:43:31;;;;;;;6.70;6.00;;;15.20;62.30;;;;;;10279677;28;20029;-53
2023/04/21 03:48:31;;;;;;;7.00;5.63;;;15.60;61.30;;;;;;10278508;28;20046;-55
2023/04/21 03:53:32;;;;;;;7.15;5.00;;;15.80;60.70;;;;;;10279684;28;20093;-53
2023/04/21 03:58:33;;;;;;;5.35;4.32;;;16.20;59.70;;;;;;10283000;28;20077;-54
2023/04/21 04:03:34;;;;;;;6.63;4.80;;;16.50;58.80;;;;;;10287473;28;20023;-56
2023/04/21 04:08:34;;;;;;;5.35;3.78;;;16.70;58.50;;;;;;10287699;28;20034;-54
2023/04/21 04:13:35;;;;;;;6.28;4.38;;;16.70;58.30;;;;;;10287309;28;20088;-55
2023/04/21 04:18:36;;;;;;;6.47;5.40;;;16.70;58.60;;;;;;10271043;28;20403;-56
2023/04/21 04:23:36;;;;;;;4.63;3.50;;;16.50;59.00;;;;;;10289558;28;20050;-55
2023/04/21 04:28:37;;;;;;;5.15;3.78;;;16.50;59.40;;;;;;10287695;28;20089;-57
2023/04/21 04:33:41;;;;;;;4.78;4.28;;;16.40;59.60;;;;;;10286434;28;20023;-57
2023/04/21 04:38:42;;;;;;;5.35;4.55;;;16.50;59.40;;;;;;10286418;28;20478;-56
2023/04/21 04:43:43;;;;;;;5.85;4.55;;;16.40;60.00;;;;;;10288201;28;20033;-56
2023/04/21 04:48:43;;;;;;;7.75;4.65;;;16.30;60.60;;;;;;10246966;28;20127;-53
2023/04/21 04:53:44;;;;;;;10.40;4.93;;;16.30;60.70;;;;;;10249148;29;20039;-52
2023/04/21 04:58:48;;;;;;;6.90;4.82;;;16.30;61.80;;;;;;10248566;29;20124;-51
2023/04/21 05:03:48;;;;;;;8.88;4.70;;;16.30;61.80;;;;;;10247769;28;20386;-56
2023/04/21 05:08:49;;;;;;;13.98;5.95;;;16.30;62.20;;;;;;10245948;28;20035;-54
2023/04/21 05:13:50;;;;;;;15.52;6.72;;;16.30;63.60;;;;;;10247414;29;20106;-55
2023/04/21 05:18:52;;;;;;;13.38;6.30;;;16.20;63.30;;;;;;10247248;29;20559;-55
2023/04/21 05:23:55;;;;;;;13.70;6.30;;;16.10;63.60;;;;;;10247921;28;20023;-52
2023/04/21 05:28:57;;;;;;;18.15;6.75;;;16.10;63.90;;;;;;10246819;29;20039;-55
2023/04/21 05:33:57;;;;;;;26.08;7.57;;;16.00;64.00;;;;;;10245594;29;20074;-54
2023/04/21 05:38:58;;;;;;;31.17;9.07;;;15.90;64.20;;;;;;10244926;29;20515;-56
2023/04/21 05:43:58;;;;;;;18.92;9.13;;;15.90;64.10;;;;;;10241961;29;20713;-54
2023/04/21 05:49:03;;;;;;;35.40;9.20;;;15.80;64.90;;;;;;10280053;28;20104;-57
2023/04/21 05:54:03;;;;;;;25.85;8.55;;;15.80;65.10;;;;;;10285197;28;20501;-56
2023/04/21 05:59:05;;;;;;;23.02;6.97;;;15.80;65.40;;;;;;10284483;28;20027;-55
2023/04/21 06:04:06;;;;;;;28.08;8.90;;;16.00;65.20;;;;;;10282568;28;20049;-55
2023/04/21 06:09:07;;;;;;;17.05;6.97;;;16.20;64.70;;;;;;10281577;28;20109;-55
2023/04/21 06:14:07;;;;;;;20.77;7.30;;;16.60;63.90;;;;;;10281920;28;20110;-56
2023/04/21 06:19:08;;;;;;;23.33;7.15;;;17.00;62.90;;;;;;10282135;28;20051;-54
2023/04/21 06:24:08;;;;;;;17.35;7.43;;;17.20;61.80;;;;;;10264359;28;20113;-53
2023/04/21 06:29:09;;;;;;;15.88;6.15;;;17.50;60.90;;;;;;10282184;28;20022;-53
2023/04/21 06:34:10;;;;;;;16.58;6.57;;;17.70;60.60;;;;;;10279483;28;20047;-55
2023/04/21 06:39:11;;;;;;;16.38;5.85;;;17.70;60.50;;;;;;10279172;28;20102;-54
2023/04/21 06:44:15;;;;;;;20.60;7.53;;;17.70;60.10;;;;;;10280536;28;20042;-54
2023/04/21 06:49:15;;;;;;;15.25;6.57;;;17.80;59.90;;;;;;10280142;28;20071;-55
2023/04/21 06:54:16;;;;;;;20.05;7.50;;;17.80;59.70;;;;;;10282385;28;20478;-56
2023/04/21 06:59:17;;;;;;;17.75;6.20;;;17.80;59.70;;;;;;10282337;28;20033;-54
2023/04/21 07:04:18;;;;;;;11.15;5.97;;;17.80;59.70;;;;;;10264372;28;20102;-55
2023/04/21 07:09:18;;;;;;;13.32;5.97;;;17.80;59.80;;;;;;10282018;28;20039;-54
2023/04/21 07:14:19;;;;;;;13.57;6.57;;;17.70;59.90;;;;;;10281930;28;20351;-54
2023/04/21 07:19:20;;;;;;;12.10;6.63;;;17.70;60.00;;;;;;10281310;28;20061;-50
2023/04/21 07:24:20;;;;;;;10.80;6.10;;;17.70;60.10;;;;;;10281174;28;20025;-54
2023/04/21 07:29:21;;;;;;;11.10;6.18;;;17.70;60.00;;;;;;10281435;28;20070;-55
2023/04/21 07:34:22;;;;;;;14.00;6.55;;;17.70;60.10;;;;;;10274596;28;20098;-54
2023/04/21 07:39:22;;;;;;;10.70;6.00;;;17.70;60.00;;;;;;10294585;28;20106;-55
2023/04/21 07:44:23;;;;;;;10.73;5.68;;;17.60;60.10;;;;;;10294666;28;20106;-54
2023/04/21 07:49:24;;;;;;;10.95;6.78;;;17.60;60.40;;;;;;10294148;28;20085;-53
2023/04/21 07:54:25;;;;;;;8.57;6.70;;;17.50;60.50;;;;;;10294366;28;20023;-53
2023/04/21 07:59:25;;;;;;;21.02;7.63;;;17.50;60.60;;;;;;10294429;28;20066;-54
2023/04/21 08:04:26;;;;;;;14.90;7.03;;;17.30;61.10;;;;;;10292589;28;20023;-54
2023/04/21 08:09:27;;;;;;;16.35;7.45;;;17.40;61.80;;;;;;10294438;28;20069;-50
2023/04/21 08:14:27;;;;;;;16.25;8.20;;;17.60;62.00;;;;;;10293208;28;20501;-54
2023/04/21 08:19:28;;;;;;;17.58;7.15;;;17.60;62.30;;;;;;10293488;28;20023;-54
2023/04/21 08:24:29;;;;;;;16.17;7.80;;;17.60;62.90;;;;;;10293907;28;20030;-56
2023/04/21 08:29:30;;;;;;;23.75;8.88;;;17.60;63.30;;;;;;10291909;28;20133;-53
2023/04/21 08:34:30;;;;;;;12.30;6.50;;;17.60;62.90;;;;;;10292526;28;20522;-53
2023/04/21 08:39:31;;;;;;;16.48;8.30;;;17.60;63.30;;;;;;10291533;28;20014;-54
2023/04/21 08:44:32;;;;;;;11.23;6.60;;;17.40;63.50;;;;;;10270962;28;20027;-55
2023/04/21 08:49:33;;;;;;;21.05;9.85;;;17.30;63.70;;;;;;10284872;28;20035;-55
2023/04/21 08:54:37;;;;;;;17.00;7.88;;;17.40;63.60;;;;;;10268326;28;20027;-49
2023/04/21 08:59:38;;;;;;;14.98;7.93;;;17.40;63.20;;;;;;10286023;28;20039;-48
2023/04/21 09:04:41;;;;;;;12.43;8.80;;;17.40;64.60;;;;;;10286803;28;20110;-51
2023/04/21 09:09:56;;;;;;;10.63;7.28;;;17.40;63.70;;;;;;10286115;28;20366;-52
2023/04/21 09:14:57;;;;;;;12.52;7.70;;;17.30;64.20;;;;;;10286064;28;20041;-51
2023/04/21 09:20:17;;;;;;;12.57;8.27;;;17.30;64.90;;;;;;10285769;28;20437;-48
2023/04/21 09:25:22;;;;;;;12.40;8.73;;;17.20;65.10;;;;;;10285497;28;20027;-50
2023/04/21 09:30:23;;;;;;;13.15;7.95;;;17.10;65.30;;;;;;10268623;28;20034;-51
2023/04/21 09:35:34;;;;;;;12.52;8.50;;;17.00;65.30;;;;;;10285264;28;20027;-52
2023/04/21 09:40:34;;;;;;;19.65;9.40;;;17.10;65.80;;;;;;10285316;28;20035;-52
2023/04/21 09:45:35;;;;;;;15.88;8.75;;;17.10;65.60;;;;;;10284381;28;20047;-50
2023/04/21 09:50:36;;;;;;;21.80;9.40;;;17.10;66.00;;;;;;10284937;28;20035;-47
2023/04/21 09:55:40;;;;;;;21.98;9.73;;;17.10;65.90;;;;;;10266176;28;20101;-51
2023/04/21 10:00:42;;;;;;;23.73;10.18;;;17.00;66.00;;;;;;10267123;28;20518;-49
2023/04/21 10:05:43;;;;;;;22.98;10.57;;;16.90;66.10;;;;;;10266477;28;20070;-47
2023/04/21 10:10:45;;;;;;;19.95;10.30;;;16.80;66.10;;;;;;10283888;28;20031;-55
2023/04/21 10:15:45;;;;;;;29.83;12.93;;;16.80;66.10;;;;;;10264548;28;20097;-46
2023/04/21 10:20:54;;;;;;;35.45;14.43;;;16.80;66.30;;;;;;10278975;28;20036;-48
2023/04/21 10:26:03;;;;;;;32.72;13.30;;;16.70;67.30;;;;;;10282716;28;20026;-47
2023/04/21 10:31:32;;;;;;;34.70;13.23;;;16.70;66.90;;;;;;10282315;28;20034;-51
2023/04/21 10:37:02;;;;;;;22.63;11.40;;;16.70;67.10;;;;;;10279849;28;20395;-52
2023/04/21 10:42:25;;;;;;;26.73;14.35;;;16.70;67.00;;;;;;10257797;28;20023;-55
2023/04/21 10:48:02;;;;;;;34.28;12.43;;;17.00;67.50;;;;;;10263986;28;20105;-51
2023/04/21 10:53:11;;;;;;;26.10;12.45;;;17.10;67.50;;;;;;10266631;28;20542;-53
2023/04/21 10:58:15;;;;;;;35.00;13.65;;;17.20;67.60;;;;;;10280184;28;20097;-54
2023/04/21 11:03:16;;;;;;;33.65;11.23;;;17.20;67.30;;;;;;10281312;28;20029;-51
2023/04/21 11:08:16;;;;;;;22.40;11.88;;;17.00;67.10;;;;;;10278440;28;20362;-54
2023/04/21 11:13:23;;;;;;;24.15;13.43;;;16.80;67.30;;;;;;10261007;28;20102;-54
2023/04/21 11:18:38;;;;;;;21.80;13.85;;;16.90;68.30;;;;;;10278119;28;20031;-56
2023/04/21 11:23:41;;;;;;;23.70;11.93;;;16.90;67.40;;;;;;10274164;28;20386;-54
2023/04/21 11:28:41;;;;;;;22.70;12.32;;;16.80;67.50;;;;;;10260668;28;20023;-56
2023/04/21 11:33:42;;;;;;;26.95;12.05;;;16.70;67.80;;;;;;10262407;28;20031;-55
2023/04/21 11:38:43;;;;;;;22.77;11.15;;;16.70;67.80;;;;;;10280209;28;20154;-54
2023/04/21 11:43:45;;;;;;;18.77;11.02;;;16.80;68.10;;;;;;10279985;28;20023;-55
2023/04/21 11:48:45;;;;;;;18.70;11.90;;;16.80;68.40;;;;;;10280475;28;20043;-55
2023/04/21 11:53:47;;;;;;;27.88;12.88;;;16.80;68.80;;;;;;10265785;28;20073;-50
2023/04/21 11:58:51;;;;;;;34.88;13.98;;;16.80;68.50;;;;;;10261949;28;20605;-54
2023/04/21 12:03:55;;;;;;;31.25;12.75;;;16.90;68.40;;;;;;10261872;28;20074;-57
2023/04/21 12:09:01;;;;;;;27.02;11.38;;;16.90;68.10;;;;;;10278317;28;20038;-53
2023/04/21 12:14:02;;;;;;;25.85;11.70;;;16.80;67.80;;;;;;10262256;28;20025;-56
2023/04/21 12:19:03;;;;;;;20.73;12.15;;;16.80;67.80;;;;;;10282356;28;20094;-54
2023/04/21 12:24:04;;;;;;;17.60;12.05;;;16.70;67.70;;;;;;10286548;28;20117;-55
2023/04/21 12:29:05;;;;;;;20.88;11.75;;;16.70;67.60;;;;;;10286731;28;20027;-54
2023/04/21 12:34:05;;;;;;;15.60;11.70;;;16.60;67.60;;;;;;10270371;28;20105;-54
2023/04/21 12:39:06;;;;;;;19.60;12.23;;;16.60;67.50;;;;;;10284319;28;20453;-54
2023/04/21 12:44:07;;;;;;;21.98;12.10;;;16.60;67.40;;;;;;10284311;28;20026;-54
2023/04/21 12:49:08;;;;;;;20.10;12.43;;;16.60;67.40;;;;;;10266656;28;20139;-55
2023/04/21 12:54:11;;;;;;;20.50;11.73;;;16.60;67.20;;;;;;10286629;28;20473;-56
2023/04/21 12:59:11;;;;;;;16.83;11.95;;;16.60;67.10;;;;;;10269615;28;20019;-55
2023/04/21 13:04:12;;;;;;;17.38;11.50;;;16.60;67.10;;;;;;10286291;28;20030;-55
2023/04/21 13:09:13;;;;;;;16.48;11.52;;;16.60;67.00;;;;;;10286153;28;20038;-55
2023/04/21 13:14:14;;;;;;;15.30;10.43;;;16.60;67.00;;;;;;10268919;28;20011;-56
2023/04/21 13:19:15;;;;;;;19.08;12.55;;;16.60;67.00;;;;;;10285924;28;20030;-54
2023/04/21 13:24:16;;;;;;;17.90;12.00;;;16.50;66.90;;;;;;10285703;28;20037;-53
2023/04/21 13:29:16;;;;;;;17.30;12.82;;;16.60;66.90;;;;;;10283015;28;20166;-51
2023/04/21 13:34:17;;;;;;;14.38;12.02;;;16.60;66.80;;;;;;10285385;28;20026;-55
2023/04/21 13:39:18;;;;;;;14.93;11.70;;;16.70;66.80;;;;;;10285097;28;20437;-56
2023/04/21 13:44:22;;;;;;;15.20;11.57;;;16.70;66.70;;;;;;10283891;28;20054;-53
2023/04/21 13:49:23;;;;;;;12.95;10.15;;;16.80;66.60;;;;;;10284659;28;20600;-52
2023/04/21 13:54:24;;;;;;;14.52;10.23;;;16.80;66.30;;;;;;10284675;28;20110;-55
2023/04/21 13:59:24;;;;;;;13.98;10.35;;;16.90;66.20;;;;;;10284010;28;20035;-52
2023/04/21 14:04:25;;;;;;;23.13;10.50;;;16.80;66.20;;;;;;10284466;28;20482;-55
2023/04/21 14:09:26;;;;;;;12.88;10.43;;;16.80;66.10;;;;;;10266803;28;20249;-53
2023/04/21 14:14:27;;;;;;;11.90;9.57;;;16.70;66.10;;;;;;10266572;28;20019;-55
2023/04/21 14:19:30;;;;;;;14.98;10.35;;;16.70;66.20;;;;;;10265870;28;20062;-54
2023/04/21 14:24:31;;;;;;;11.73;9.93;;;16.70;66.20;;;;;;10283643;28;20029;-53
2023/04/21 14:29:32;;;;;;;15.60;9.93;;;16.70;66.10;;;;;;10265601;28;20111;-56
2023/04/21 14:34:33;;;;;;;10.40;8.80;;;16.70;66.00;;;;;;10283184;28;20022;-56
2023/04/21 14:39:33;;;;;;;12.95;10.20;;;16.70;65.90;;;;;;10265730;28;20054;-52
2023/04/21 14:44:34;;;;;;;14.02;10.77;;;16.70;65.90;;;;;;10282343;28;20128;-53
2023/04/21 14:49:36;;;;;;;11.95;10.05;;;16.70;66.20;;;;;;10282109;28;20051;-55
2023/04/21 14:54:37;;;;;;;22.48;10.50;;;16.70;66.10;;;;;;10265357;28;20026;-54
2023/04/21 14:59:38;;;;;;;18.95;9.88;;;16.70;66.20;;;;;;10259369;28;20055;-54
2023/04/21 15:04:38;;;;;;;25.40;11.75;;;16.70;66.50;;;;;;10271918;28;20023;-56
2023/04/21 15:09:41;;;;;;;24.50;12.95;;;16.90;66.60;;;;;;10280046;28;20038;-55
2023/04/21 15:14:42;;;;;;;20.63;13.13;;;16.90;66.60;;;;;;10274201;28;20069;-54
2023/04/21 15:19:43;;;;;;;17.52;13.00;;;17.00;66.80;;;;;;10262779;28;20077;-55
2023/04/21 15:24:45;;;;;;;64.28;40.58;;;17.00;67.00;;;;;;10276000;28;20100;-54
2023/04/21 15:29:45;;;;;;;23.92;18.17;;;17.10;74.80;;;;;;10277674;28;20506;-54
2023/04/21 15:34:46;;;;;;;28.48;16.85;;;17.30;73.40;;;;;;10278111;28;20033;-56
2023/04/21 15:39:47;;;;;;;21.40;15.52;;;17.80;72.10;;;;;;10277969;28;20106;-54
2023/04/21 15:44:48;;;;;;;20.25;14.57;;;18.00;71.80;;;;;;10277125;28;20466;-57
2023/04/21 15:49:48;;;;;;;20.38;13.93;;;18.00;71.40;;;;;;10279516;28;20071;-56
2023/04/21 15:54:49;;;;;;;20.90;13.93;;;18.00;70.30;;;;;;10283629;28;20469;-57
2023/04/21 15:59:50;;;;;;;17.80;13.70;;;17.90;70.20;;;;;;10288104;28;20027;-56
2023/04/21 16:04:51;;;;;;;23.48;14.15;;;17.80;70.80;;;;;;10287679;28;20066;-56
2023/04/21 16:09:51;;;;;;;26.13;14.65;;;17.70;70.20;;;;;;10270012;28;20753;-56
2023/04/21 16:14:53;;;;;;;24.33;13.98;;;17.50;70.50;;;;;;10286582;28;20046;-54
2023/04/21 16:19:54;;;;;;;22.55;13.95;;;17.40;70.90;;;;;;10285540;28;20026;-47
2023/04/21 16:24:57;;;;;;;24.52;13.93;;;17.50;71.10;;;;;;10264907;28;20034;-54
2023/04/21 16:29:58;;;;;;;25.88;13.73;;;17.60;70.60;;;;;;10278885;28;20386;-56
2023/04/21 16:34:58;;;;;;;29.35;14.27;;;17.60;71.00;;;;;;10286362;28;20031;-57
2023/04/21 16:40:00;;;;;;;23.23;13.55;;;17.60;70.90;;;;;;10285626;28;20154;-57
2023/04/21 16:45:03;;;;;;;32.17;13.75;;;17.60;70.50;;;;;;10270290;28;20062;-59
2023/04/21 16:50:06;;;;;;;24.90;13.10;;;17.40;69.90;;;;;;10287469;28;20038;-57
2023/04/21 16:55:08;;;;;;;33.28;12.55;;;17.30;70.30;;;;;;10288046;28;20031;-56
2023/04/21 17:00:09;;;;;;;27.55;13.45;;;17.40;70.40;;;;;;10286396;28;20101;-57
2023/04/21 17:05:11;;;;;;;34.90;15.35;;;17.30;69.70;;;;;;10268048;28;20107;-55
2023/04/21 17:10:11;;;;;;;19.17;13.15;;;17.20;69.60;;;;;;10269225;28;20379;-56
2023/04/21 17:15:12;;;;;;;23.00;11.90;;;17.10;69.90;;;;;;10284506;28;20034;-55
2023/04/21 17:20:13;;;;;;;22.77;13.10;;;17.10;69.70;;;;;;10282451;28;20153;-55
2023/04/21 17:25:14;;;;;;;20.88;12.20;;;17.10;69.60;;;;;;10268167;28;20022;-57
2023/04/21 17:30:15;;;;;;;24.45;12.88;;;17.00;70.00;;;;;;10286640;28;20479;-57
2023/04/21 17:35:16;;;;;;;23.35;11.95;;;17.00;69.80;;;;;;10287489;28;20040;-57
2023/04/21 17:40:16;;;;;;;23.33;12.82;;;17.00;69.80;;;;;;10287076;28;20075;-57
2023/04/21 17:45:17;;;;;;;33.75;13.18;;;17.00;70.10;;;;;;10286824;28;20055;-57
2023/04/21 17:50:19;;;;;;;17.60;13.00;;;17.00;70.20;;;;;;10286313;28;20035;-57
2023/04/21 17:55:20;;;;;;;23.13;12.85;;;17.00;70.10;;;;;;10286352;28;20023;-58
2023/04/21 18:00:21;;;;;;;23.85;11.68;;;17.00;70.10;;;;;;10268989;28;20027;-57
2023/04/21 18:05:21;;;;;;;16.10;11.00;;;16.90;69.50;;;;;;10284211;28;20433;-58
2023/04/21 18:10:22;;;;;;;15.90;10.38;;;16.90;69.40;;;;;;10266567;28;20049;-57
2023/04/21 18:15:23;;;;;;;16.02;10.27;;;17.00;70.30;;;;;;10282533;28;20019;-59
2023/04/21 18:20:24;;;;;;;15.68;10.25;;;17.10;69.90;;;;;;10266036;28;20086;-57
2023/04/21 18:25:24;;;;;;;15.82;10.25;;;17.00;69.60;;;;;;10283113;28;20023;-58
2023/04/21 18:30:25;;;;;;;15.00;9.70;;;17.10;69.80;;;;;;10284575;28;20742;-57
2023/04/21 18:35:26;;;;;;;12.70;9.30;;;17.00;69.40;;;;;;10276970;28;20017;-57
2023/04/21 18:40:27;;;;;;;14.75;9.50;;;17.00;69.40;;;;;;10285347;28;20023;-57
2023/04/21 18:45:27;;;;;;;11.63;8.65;;;17.00;69.70;;;;;;10270486;28;20066;-57
2023/04/21 18:50:29;;;;;;;13.70;8.63;;;17.00;69.40;;;;;;10283428;28;20118;-57
2023/04/21 18:55:32;;;;;;;13.70;9.07;;;17.00;69.50;;;;;;10266708;28;20646;-58
2023/04/21 19:00:37;;;;;;;10.43;7.85;;;17.00;69.50;;;;;;10265655;28;20050;-57
2023/04/21 19:05:39;;;;;;;10.20;7.88;;;17.00;69.40;;;;;;10283201;28;20129;-57
2023/04/21 19:10:40;;;;;;;12.68;8.63;;;17.00;70.20;;;;;;10282642;28;20532;-56
2023/04/21 19:15:40;;;;;;;10.27;7.10;;;17.00;70.30;;;;;;10282854;28;20220;-58
2023/04/21 19:20:41;;;;;;;10.98;8.05;;;17.00;69.60;;;;;;10283021;28;20022;-57
2023/04/21 19:25:42;;;;;;;9.48;6.97;;;16.90;69.40;;;;;;10283341;28;20054;-57
2023/04/21 19:30:42;;;;;;;11.30;7.40;;;16.80;69.50;;;;;;10265133;28;20121;-56
2023/04/21 19:35:43;;;;;;;14.55;7.90;;;16.90;69.40;;;;;;10283432;28;20573;-57
2023/04/21 19:40:44;;;;;;;10.38;7.20;;;16.90;69.30;;;;;;10263933;28;20029;-57
2023/04/21 19:45:46;;;;;;;7.85;6.10;;;16.90;69.40;;;;;;10280438;28;20406;-57
2023/04/21 19:50:46;;;;;;;11.77;6.65;;;16.90;69.40;;;;;;10277470;28;20035;-56
2023/04/21 19:55:49;;;;;;;11.00;6.78;;;16.80;69.30;;;;;;10281000;28;20126;-57
2023/04/21 20:00:50;;;;;;;8.70;6.25;;;16.70;69.30;;;;;;10262508;28;20309;-56
2023/04/21 20:05:50;;;;;;;5.28;3.75;;;16.70;69.50;;;;;;10280092;28;20026;-57
2023/04/21 20:10:51;;;;;;;6.82;4.93;;;16.70;69.20;;;;;;10279121;28;20497;-56
2023/04/21 20:15:52;;;;;;;7.50;5.35;;;16.60;69.20;;;;;;10279874;28;20094;-56
2023/04/21 20:20:52;;;;;;;7.20;5.00;;;16.60;68.90;;;;;;10279843;28;20021;-57
2023/04/21 20:25:53;;;;;;;7.25;5.65;;;16.60;69.00;;;;;;10262003;28;20111;-56
2023/04/21 20:30:55;;;;;;;6.10;5.03;;;16.50;68.50;;;;;;10280691;28;20093;-58
2023/04/21 20:35:56;;;;;;;6.32;4.78;;;16.50;68.40;;;;;;10281906;28;20027;-57
2023/04/21 20:40:58;;;;;;;6.60;4.95;;;16.50;68.50;;;;;;10285721;28;20031;-56
2023/04/21 20:46:00;;;;;;;6.30;4.15;;;16.50;68.50;;;;;;10288958;28;20553;-57
2023/04/21 20:51:01;;;;;;;8.52;4.88;;;16.50;68.30;;;;;;10271311;28;20061;-56
2023/04/21 20:56:02;;;;;;;6.28;4.82;;;16.50;68.20;;;;;;10288648;28;20027;-56
2023/04/21 21:01:02;;;;;;;6.68;4.45;;;16.50;68.10;;;;;;10270928;28;20058;-57
2023/04/21 21:06:03;;;;;;;5.72;4.47;;;16.50;68.00;;;;;;10288087;28;20094;-55
2023/04/21 21:11:05;;;;;;;6.60;3.90;;;16.40;68.00;;;;;;10270483;28;20410;-56
2023/04/21 21:16:05;;;;;;;5.65;4.65;;;16.40;67.90;;;;;;10270561;28;20011;-57
2023/04/21 21:21:06;;;;;;;5.20;4.40;;;16.40;68.00;;;;;;10287655;28;20023;-56
2023/04/21 21:26:07;;;;;;;5.93;4.22;;;16.40;67.90;;;;;;10269895;28;20023;-54
2023/04/21 21:31:08;;;;;;;5.97;4.15;;;16.40;67.70;;;;;;10287226;28;20031;-56
2023/04/21 21:36:08;;;;;;;5.22;3.78;;;16.40;67.60;;;;;;10287269;28;20056;-56
2023/04/21 21:41:11;;;;;;;7.80;4.15;;;16.40;67.70;;;;;;10269747;28;20027;-56
2023/04/21 21:46:12;;;;;;;4.35;3.35;;;16.40;67.70;;;;;;10287016;28;20082;-57
2023/04/21 21:51:12;;;;;;;9.18;4.68;;;16.40;67.70;;;;;;10268684;28;20173;-56
2023/04/21 21:56:13;;;;;;;5.18;3.55;;;16.40;67.70;;;;;;10286556;28;20111;-56
2023/04/21 22:01:16;;;;;;;5.93;4.47;;;16.30;67.80;;;;;;10268667;28;20026;-56
2023/04/21 22:06:17;;;;;;;6.95;4.20;;;16.30;67.90;;;;;;10269074;28;20033;-56
2023/04/21 22:11:21;;;;;;;4.60;3.00;;;16.30;67.80;;;;;;10285346;28;20080;-56
2023/04/21 22:16:22;;;;;;;7.15;3.40;;;16.30;67.70;;;;;;10285667;28;20118;-56
2023/04/21 22:21:26;;;;;;;6.00;3.40;;;16.30;67.70;;;;;;10285135;28;20107;-56
2023/04/21 22:26:27;;;;;;;4.78;2.92;;;16.30;67.80;;;;;;10266762;28;20015;-54
2023/04/21 22:31:29;;;;;;;5.25;3.30;;;16.30;67.70;;;;;;10285164;28;20074;-56
2023/04/21 22:36:31;;;;;;;5.28;2.97;;;16.30;67.70;;;;;;10267471;28;20027;-57
2023/04/21 22:41:32;;;;;;;4.45;3.22;;;16.30;67.70;;;;;;10284513;28;20382;-56
2023/04/21 22:46:32;;;;;;;3.85;2.70;;;16.30;67.70;;;;;;10284816;28;20076;-57
2023/04/21 22:51:33;;;;;;;4.85;2.95;;;16.30;67.60;;;;;;10284175;28;20035;-56
2023/04/21 22:56:34;;;;;;;4.30;3.10;;;16.20;67.70;;;;;;10267090;28;20106;-56
2023/04/21 23:01:35;;;;;;;4.60;3.45;;;16.20;67.70;;;;;;10267333;28;20109;-55
2023/04/21 23:06:35;;;;;;;5.32;3.70;;;16.20;67.60;;;;;;10283872;28;20054;-56
2023/04/21 23:11:36;;;;;;;3.88;2.78;;;16.20;67.60;;;;;;10284144;28;20121;-57
2023/04/21 23:16:37;;;;;;;3.40;3.10;;;16.20;67.50;;;;;;10266079;28;20098;-56
2023/04/21 23:21:37;;;;;;;3.83;2.85;;;16.20;67.50;;;;;;10283774;28;20488;-57
2023/04/21 23:26:38;;;;;;;4.43;3.22;;;16.20;67.40;;;;;;10283320;28;20023;-55
2023/04/21 23:31:39;;;;;;;3.58;2.70;;;16.20;67.30;;;;;;10283093;28;20039;-56
2023/04/21 23:36:40;;;;;;;4.75;3.08;;;16.20;67.30;;;;;;10265687;28;20023;-56
2023/04/21 23:41:40;;;;;;;4.25;2.40;;;16.10;67.20;;;;;;10282499;28;20062;-56
2023/04/21 23:46:41;;;;;;;3.88;2.65;;;16.10;67.10;;;;;;10265635;28;20055;-57
2023/04/21 23:51:42;;;;;;;4.10;2.75;;;16.20;67.20;;;;;;10283292;28;20031;-56
2023/04/21 23:56:42;;;;;;;4.85;2.88;;;16.10;67.00;;;;;;10283221;28;20160;-56
